Blairsden-graeagle, California
Current Conditions -  °F | °C
As of 12:52 AM on Monday 20 Oct 2014 (Local Time) from KBLU Reporting Station
Clear Clear  
Wind Chill: 52°   Ceiling: Unl
Heat Index: 52°   Visibility: 10mi
Dew Point: 36°   Wind: 5mph
Humidity: 54%   Direction: 140°SE
Pressure: 30.05"   Gusts: NA
Location:  39.82°N, 120.66°W
Report Text: KBLU 200752Z AUTO 14004KT 10SM CLR 11/02 A3005 RMK AO2 SLP112 T01110022 401780111
Loading
Personal Weather Stations






























Interactive Weather Map
Tropical Storm Tracking
New forecast layout! Learn more

10-Day Weather Forecast

Advertisements
Track Severe Weather on mobile